Time;durP1;ratioP1;P1;durP2;ratioP2;P2;SDS_P1;SDS_P2;PMS_P1;PMS_P2;Temp;Humidity;BMP_temperature;BMP_pressure;BME280_temperature;BME280_humidity;BME280_pressure;Samples;Min_cycle;Max_cycle;Signal;HPM_P1;HPM_P2
2022/01/21 00:00:29;;;;;;;;;;;;;;;14.82;59.90;103024.69;1054664;28;625;-63
2022/01/21 00:01:20;;;;;;;;;;;;;;;14.82;60.15;103030.03;1054317;28;696;-63
2022/01/21 00:02:10;;;;;;;;;;;;;;;14.80;60.04;103024.75;1054657;28;909;-63
2022/01/21 00:03:00;;;;;;;;;;;;;;;14.81;59.72;103030.97;1054132;28;1821;-63
2022/01/21 00:03:51;;;;;;;;;;;;;;;14.80;60.01;103023.88;1055514;28;765;-63
2022/01/21 00:04:41;;;;;;;;;;;;;;;14.80;60.53;103024.75;1055416;28;1191;-63
2022/01/21 00:05:32;;;;;;;;;;;;;;;14.79;60.25;103027.50;1055422;28;903;-63
2022/01/21 00:06:22;;;;;;;;;;;;;;;14.77;59.66;103019.53;1055481;28;835;-63
2022/01/21 00:07:12;;;;;;;;;;;;;;;14.78;60.13;103025.75;1054694;28;743;-63
2022/01/21 00:08:03;;;;;;;;;;;;;;;14.77;59.67;103030.25;1054836;28;2029;-63
2022/01/21 00:08:53;;;;;;;;;;;;;;;14.76;60.40;103020.47;1054181;28;805;-63
2022/01/21 00:09:46;;;;;;;;;;;;;;;14.75;59.91;103026.78;1054088;28;1902;-63
2022/01/21 00:10:36;;;;;;;;;;;;;;;14.75;60.27;103025.91;1054206;28;650;-63
2022/01/21 00:11:30;;;;;;;;;;;;;;;14.74;60.25;103029.53;1054740;28;859;-62
2022/01/21 00:12:20;;;;;;;;;;;;;;;14.74;60.47;103030.41;1054091;28;656;-62
2022/01/21 00:13:20;;;;;;;;;;;;;;;14.73;60.49;103034.03;1054161;28;756;-63
2022/01/21 00:14:10;;;;;;;;;;;;;;;14.72;60.11;103028.72;1054132;28;710;-63
2022/01/21 00:15:01;;;;;;;;;;;;;;;14.71;61.53;103033.22;1054237;28;801;-63
2022/01/21 00:15:51;;;;;;;;;;;;;;;14.70;59.72;103031.47;1054145;28;754;-63
2022/01/21 00:16:42;;;;;;;;;;;;;;;14.70;60.76;103034.16;1054301;28;608;-62
2022/01/21 00:17:32;;;;;;;;;;;;;;;14.69;60.52;103035.09;1054033;28;846;-62
2022/01/21 00:18:23;;;;;;;;;;;;;;;14.68;59.92;103041.44;1054763;28;712;-62
2022/01/21 00:19:16;;;;;;;;;;;;;;;14.69;60.37;103042.31;1054184;28;744;-62
2022/01/21 00:30:30;;;;;;;;;;;;;;;14.62;61.49;103040.84;1054691;28;613;-62
2022/01/21 00:31:21;;;;;;;;;;;;;;;14.58;62.30;103038.31;1054441;28;692;-62
2022/01/21 00:32:11;;;;;;;;;;;;;;;14.59;60.42;103044.53;1055095;28;1354;-62
2022/01/21 00:33:02;;;;;;;;;;;;;;;14.58;61.46;103034.75;1054419;28;783;-63
2022/01/21 00:33:52;;;;;;;;;;;;;;;14.57;61.64;103043.75;1055301;28;730;-62
2022/01/21 00:34:43;;;;;;;;;;;;;;;14.56;61.31;103042.00;1055045;28;641;-62
2022/01/21 00:35:33;;;;;;;;;;;;;;;14.56;61.31;103042.88;1054763;28;660;-62
2022/01/21 00:36:23;;;;;;;;;;;;;;;14.56;61.56;103039.31;1055195;28;832;-62
2022/01/21 00:37:14;;;;;;;;;;;;;;;14.54;61.70;103044.75;1055326;28;687;-62
2022/01/21 00:38:04;;;;;;;;;;;;;;;14.53;60.88;103043.00;1055295;28;766;-62
2022/01/21 00:38:56;;;;;;;;;;;;;;;14.53;62.21;103047.50;1055212;28;707;-62
2022/01/21 00:39:52;;;;;;;;;;;;;;;14.53;61.85;103047.50;1055261;28;770;-62
2022/01/21 00:40:43;;;;;;;;;;;;;;;14.50;61.73;103048.53;1055043;28;983;-62
2022/01/21 00:41:39;;;;;;;;;;;;;;;14.50;60.46;103053.03;1055134;28;743;-62
2022/01/21 00:42:47;;;;;;;;;;;;;;;14.51;61.14;103054.78;1055120;28;851;-62
2022/01/21 00:43:44;;;;;;;;;;;;;;;14.50;60.42;103045.00;1055135;28;716;-62
2022/01/21 00:44:34;;;;;;;;;;;;;;;14.49;62.38;103053.97;1055156;28;952;-62
2022/01/21 00:45:26;;;;;;;;;;;;;;;14.49;60.51;103051.28;1055261;28;716;-62
2022/01/21 00:46:16;;;;;;;;;;;;;;;14.47;62.39;103054.03;1055215;28;676;-62
2022/01/21 00:47:07;;;;;;;;;;;;;;;14.48;61.90;103061.16;1055045;28;1789;-62
2022/01/21 00:47:57;;;;;;;;;;;;;;;14.48;61.45;103061.16;1059395;27;744;-62
2022/01/21 00:48:47;;;;;;;;;;;;;;;14.47;60.41;103058.53;1058674;28;748;-62
2022/01/21 00:49:38;;;;;;;;;;;;;;;14.47;62.20;103062.09;1058234;28;1902;-62
2022/01/21 00:50:28;;;;;;;;;;;;;;;14.47;61.62;103063.91;1058036;28;1426;-62
2022/01/21 00:51:19;;;;;;;;;;;;;;;14.46;61.09;103062.16;1058397;28;661;-62
2022/01/21 00:52:09;;;;;;;;;;;;;;;14.45;61.13;103060.41;1058170;28;697;-63
2022/01/21 00:53:00;;;;;;;;;;;;;;;14.44;62.99;103059.53;1058121;28;793;-62
2022/01/21 00:53:51;;;;;;;;;;;;;;;14.44;62.87;103056.00;1058304;28;820;-62
2022/01/21 00:54:41;;;;;;;;;;;;;;;14.43;62.37;103059.59;1058877;28;632;-61
2022/01/21 00:55:32;;;;;;;;;;;;;;;14.42;62.95;103060.53;1058576;28;2013;-61
2022/01/21 00:56:22;;;;;;;;;;;;;;;14.40;62.97;103057.03;1058107;28;771;-61
2022/01/21 00:57:13;;;;;;;;;;;;;;;14.39;62.93;103060.66;1058188;28;783;-62
2022/01/21 00:58:03;;;;;;;;;;;;;;;14.40;61.60;103062.41;1058082;28;759;-62
2022/01/21 00:58:53;;;;;;;;;;;;;;;14.40;62.78;103057.94;1058142;28;623;-61
2022/01/21 00:59:44;;;;;;;;;;;;;;;14.40;61.82;103052.56;1058143;28;974;-61
2022/01/21 01:00:36;;;;;;;;;;;;;;;14.39;62.20;103055.28;1058872;28;741;-62
2022/01/21 01:01:26;;;;;;;;;;;;;;;14.39;62.24;103057.97;1058816;28;927;-62
2022/01/21 01:02:17;;;;;;;;;;;;;;;14.38;61.88;103053.53;1058602;28;1099;-62
2022/01/21 01:03:07;;;;;;;;;;;;;;;14.37;61.28;103055.34;1058852;28;693;-62
2022/01/21 01:03:57;;;;;;;;;;;;;;;14.39;60.99;103044.56;1058784;28;782;-62
2022/01/21 01:04:48;;;;;;;;;;;;;;;14.38;62.19;103050.84;1058042;28;1243;-62
2022/01/21 01:05:38;;;;;;;;;;;;;;;14.36;61.48;103044.69;1058708;28;922;-62
2022/01/21 01:06:29;;;;;;;;;;;;;;;14.36;63.05;103044.69;1058812;28;680;-62
2022/01/21 01:07:19;;;;;;;;;;;;;;;14.36;61.56;103033.97;1058731;28;778;-62
2022/01/21 01:08:10;;;;;;;;;;;;;;;14.36;63.76;103042.00;1058667;28;687;-62
2022/01/21 01:09:00;;;;;;;;;;;;;;;14.33;62.70;103043.00;1058102;28;789;-62
2022/01/21 01:09:54;;;;;;;;;;;;;;;14.34;62.69;103035.84;1058039;28;1921;-62
2022/01/21 01:20:29;;;;;;;;;;;;;;;14.28;62.26;103046.88;1054917;28;747;-62
2022/01/21 01:21:19;;;;;;;;;;;;;;;14.28;62.04;103044.19;1054561;28;665;-62
2022/01/21 01:22:10;;;;;;;;;;;;;;;14.28;62.09;103036.13;1053852;28;771;-62
2022/01/21 01:23:24;;;;;;;;;;;;;;;14.27;61.66;103037.94;1054471;28;790;-62
2022/01/21 01:27:36;;;;;;;;;;;;;;;14.27;62.77;103045.13;1054281;28;875;-62
2022/01/21 01:27:55;;;;;;;;;;;;;;;14.24;63.65;103035.41;1054351;28;1109;-62
2022/01/21 01:28:45;;;;;;;;;;;;;;;14.23;63.60;103031.84;1053748;28;857;-62
2022/01/21 01:29:35;;;;;;;;;;;;;;;14.23;62.56;103029.16;1053789;28;835;-62
2022/01/21 01:30:26;;;;;;;;;;;;;;;14.24;62.16;103030.91;1053900;28;871;-62
2022/01/21 01:31:16;;;;;;;;;;;;;;;14.23;62.46;103026.50;1053882;28;634;-62
2022/01/21 01:32:07;;;;;;;;;;;;;;;14.23;62.29;103029.16;1053772;28;936;-62
2022/01/21 01:32:59;;;;;;;;;;;;;;;14.22;62.86;103032.78;1053789;28;758;-62
2022/01/21 01:33:49;;;;;;;;;;;;;;;14.21;62.36;103032.84;1054388;28;755;-62
2022/01/21 01:34:40;;;;;;;;;;;;;;;14.20;63.93;103031.97;1050522;28;862;-61
2022/01/21 01:35:32;;;;;;;;;;;;;;;14.19;63.07;103027.56;1049397;28;702;-62
2022/01/21 01:36:22;;;;;;;;;;;;;;;14.21;61.34;103030.16;1052621;28;768;-62
2022/01/21 01:37:26;;;;;;;;;;;;;;;14.21;62.41;103028.38;1053946;28;739;-62
2022/01/21 01:38:41;;;;;;;;;;;;;;;14.23;62.64;103033.66;1054462;28;759;-62
2022/01/21 01:39:42;;;;;;;;;;;;;;;14.21;62.51;103030.16;1053742;28;625;-62
2022/01/21 01:40:36;;;;;;;;;;;;;;;14.19;62.25;103032.91;1053730;28;693;-62
2022/01/21 01:41:32;;;;;;;;;;;;;;;14.20;61.27;103031.09;1053789;28;651;-62
2022/01/21 01:49:50;;;;;;;;;;;;;;;14.14;62.20;103037.66;1058784;27;1886;-62
2022/01/21 01:50:40;;;;;;;;;;;;;;;14.14;63.22;103042.13;1057768;28;1132;-62
2022/01/21 01:51:31;;;;;;;;;;;;;;;14.16;62.25;103048.28;1058527;28;831;-62
2022/01/21 01:52:21;;;;;;;;;;;;;;;14.14;62.10;103034.97;1058569;28;641;-62
2022/01/21 01:53:11;;;;;;;;;;;;;;;14.13;62.44;103041.25;1058683;28;801;-62
2022/01/21 01:54:02;;;;;;;;;;;;;;;14.13;62.07;103041.25;1058035;28;831;-62
2022/01/21 01:54:52;;;;;;;;;;;;;;;14.13;62.73;103043.06;1058583;28;720;-61
2022/01/21 01:55:43;;;;;;;;;;;;;;;14.12;63.51;103042.19;1057891;28;876;-61
2022/01/21 01:56:33;;;;;;;;;;;;;;;14.12;62.45;103036.84;1058509;28;700;-62
2022/01/21 01:57:23;;;;;;;;;;;;;;;14.11;63.09;103045.81;1057925;28;663;-62
2022/01/21 01:58:14;;;;;;;;;;;;;;;14.10;62.67;103052.13;1058009;28;677;-62
2022/01/21 01:59:04;;;;;;;;;;;;;;;14.11;62.46;103053.00;1057912;28;825;-61
2022/01/21 01:59:55;;;;;;;;;;;;;;;14.10;63.65;103053.94;1058470;28;912;-61
2022/01/21 02:00:45;;;;;;;;;;;;;;;14.10;63.57;103049.44;1058495;28;770;-61
2022/01/21 02:01:36;;;;;;;;;;;;;;;14.09;63.98;103053.06;1058520;28;736;-61
2022/01/21 02:02:26;;;;;;;;;;;;;;;14.09;63.93;103053.06;1058507;28;748;-61
2022/01/21 02:03:16;;;;;;;;;;;;;;;14.06;65.09;103047.81;1058561;28;605;-61
2022/01/21 02:04:07;;;;;;;;;;;;;;;14.07;63.75;103054.06;1058491;28;956;-62
2022/01/21 02:04:57;;;;;;;;;;;;;;;14.06;62.58;103052.31;1058554;28;756;-62
2022/01/21 02:05:48;;;;;;;;;;;;;;;14.07;62.97;103054.06;1058466;28;750;-61
2022/01/21 02:06:38;;;;;;;;;;;;;;;14.06;63.49;103047.81;1057749;28;673;-61
2022/01/21 02:07:28;;;;;;;;;;;;;;;14.07;63.57;103057.63;1058605;28;693;-62
2022/01/21 02:08:19;;;;;;;;;;;;;;;14.05;64.19;103050.56;1058522;28;840;-62
2022/01/21 02:09:09;;;;;;;;;;;;;;;14.06;63.97;103052.31;1057809;28;749;-62
2022/01/21 02:10:00;;;;;;;;;;;;;;;14.05;61.88;103048.75;1057784;28;1967;-62
2022/01/21 02:10:50;;;;;;;;;;;;;;;14.06;62.49;103058.56;1058429;28;700;-62
2022/01/21 02:11:41;;;;;;;;;;;;;;;14.05;62.36;103054.13;1056157;28;1796;-62
2022/01/21 02:12:31;;;;;;;;;;;;;;;14.06;62.43;103053.19;1054745;28;829;-62
2022/01/21 02:13:31;;;;;;;;;;;;;;;14.06;61.87;103046.94;1054876;28;618;-62
2022/01/21 02:14:34;;;;;;;;;;;;;;;14.07;63.13;103043.34;1054842;28;916;-62
2022/01/21 02:15:26;;;;;;;;;;;;;;;14.06;64.53;103046.94;1054874;28;649;-62
2022/01/21 02:17:18;;;;;;;;;;;;;;;14.04;63.13;103047.03;1054693;28;987;-62
2022/01/21 02:21:39;;;;;;;;;;;;;;;14.03;61.27;103047.09;1054820;28;627;-62
2022/01/21 02:22:36;;;;;;;;;;;;;;;14.03;62.73;103049.75;1054889;28;928;-62
2022/01/21 02:23:26;;;;;;;;;;;;;;;14.03;63.68;103050.63;1054861;28;754;-62
2022/01/21 02:24:19;;;;;;;;;;;;;;;14.00;64.18;103044.53;1054704;28;1012;-62
2022/01/21 02:25:17;;;;;;;;;;;;;;;14.00;63.69;103049.91;1054833;28;727;-61
2022/01/21 02:26:09;;;;;;;;;;;;;;;13.98;64.11;103043.72;1054778;28;749;-61
2022/01/21 02:26:59;;;;;;;;;;;;;;;13.99;63.86;103038.31;1054643;28;881;-61
2022/01/21 02:27:49;;;;;;;;;;;;;;;13.98;63.57;103041.91;1054757;28;767;-61
2022/01/21 02:28:42;;;;;;;;;;;;;;;13.99;63.49;103045.47;1053695;28;728;-62
2022/01/21 02:29:44;;;;;;;;;;;;;;;13.98;62.82;103044.59;1053537;28;985;-61
2022/01/21 02:30:34;;;;;;;;;;;;;;;13.96;64.85;103038.47;1054967;28;925;-61
2022/01/21 02:31:25;;;;;;;;;;;;;;;13.96;62.59;103045.63;1054772;28;724;-61
2022/01/21 02:32:15;;;;;;;;;;;;;;;13.98;62.25;103041.03;1054551;28;1033;-61
2022/01/21 02:33:05;;;;;;;;;;;;;;;13.98;62.73;103038.38;1054733;28;772;-61
2022/01/21 02:33:56;;;;;;;;;;;;;;;13.96;63.23;103046.50;1054800;28;748;-62
2022/01/21 02:34:46;;;;;;;;;;;;;;;13.96;64.17;103043.81;1054834;28;814;-61
2022/01/21 02:35:37;;;;;;;;;;;;;;;13.97;62.96;103045.56;1054720;28;629;-61
2022/01/21 02:36:27;;;;;;;;;;;;;;;13.96;63.67;103035.78;1054754;28;703;-61
2022/01/21 02:37:17;;;;;;;;;;;;;;;13.95;63.61;103036.72;1049642;28;834;-62
2022/01/21 02:38:08;;;;;;;;;;;;;;;13.93;63.62;103035.91;1050302;28;704;-62
2022/01/21 02:38:58;;;;;;;;;;;;;;;13.95;62.22;103035.84;1054132;28;766;-62
2022/01/21 02:39:49;;;;;;;;;;;;;;;13.92;63.10;103034.16;1054850;28;1774;-62
2022/01/21 02:40:39;;;;;;;;;;;;;;;13.94;63.82;103036.78;1054652;28;676;-62
2022/01/21 02:41:30;;;;;;;;;;;;;;;13.94;62.30;103037.66;1054629;28;928;-62
2022/01/21 02:42:20;;;;;;;;;;;;;;;13.93;62.73;103035.91;1054629;28;621;-62
2022/01/21 02:43:10;;;;;;;;;;;;;;;13.94;62.64;103037.66;1054720;28;729;-62
2022/01/21 02:44:01;;;;;;;;;;;;;;;13.93;63.04;103043.94;1054816;28;750;-62
2022/01/21 02:44:51;;;;;;;;;;;;;;;13.93;63.47;103043.94;1054835;28;714;-62
2022/01/21 02:45:45;;;;;;;;;;;;;;;13.92;63.69;103042.22;1054627;28;805;-62
2022/01/21 02:46:40;;;;;;;;;;;;;;;13.91;62.08;103035.09;1058447;28;710;-62
2022/01/21 02:47:30;;;;;;;;;;;;;;;13.90;62.58;103038.72;1058345;28;891;-62
2022/01/21 02:48:22;;;;;;;;;;;;;;;13.90;63.52;103033.34;1057621;28;1972;-62
2022/01/21 02:49:12;;;;;;;;;;;;;;;13.87;63.98;103039.72;1054522;28;1956;-61
2022/01/21 02:50:03;;;;;;;;;;;;;;;13.88;63.96;103035.22;1053991;28;1955;-61
2022/01/21 02:50:53;;;;;;;;;;;;;;;13.89;63.08;103034.31;1054716;28;717;-62
2022/01/21 02:51:44;;;;;;;;;;;;;;;13.88;64.07;103029.88;1054665;28;892;-62
2022/01/21 02:52:42;;;;;;;;;;;;;;;13.86;64.37;103035.31;1054788;28;781;-62
2022/01/21 02:54:35;;;;;;;;;;;;;;;13.88;62.58;103021.84;1055269;28;642;-62
2022/01/21 02:55:25;;;;;;;;;;;;;;;13.87;63.58;103030.81;1053588;28;686;-62
2022/01/21 02:56:19;;;;;;;;;;;;;;;13.87;64.22;103033.50;1053977;28;844;-62
2022/01/21 02:57:09;;;;;;;;;;;;;;;13.87;63.36;103025.44;1054575;28;869;-62
2022/01/21 02:58:00;;;;;;;;;;;;;;;13.85;62.32;103021.97;1053486;28;746;-62
2022/01/21 02:58:50;;;;;;;;;;;;;;;13.87;63.61;103030.81;1054788;28;680;-62
2022/01/21 02:59:41;;;;;;;;;;;;;;;13.85;64.20;103027.31;1054610;28;1814;-62
2022/01/21 03:00:31;;;;;;;;;;;;;;;13.84;61.96;103026.44;1054605;28;819;-62
2022/01/21 03:01:22;;;;;;;;;;;;;;;13.86;62.05;103026.38;1054790;28;533;-61
2022/01/21 03:02:13;;;;;;;;;;;;;;;13.84;63.73;103025.56;1053362;28;904;-63
2022/01/21 03:03:04;;;;;;;;;;;;;;;13.85;61.73;103032.69;1056236;28;1974;-62
2022/01/21 03:03:55;;;;;;;;;;;;;;;13.86;62.47;103031.75;1057081;28;913;-62
2022/01/21 03:04:59;;;;;;;;;;;;;;;13.85;61.71;103027.31;1057549;28;1360;-62
2022/01/21 03:05:50;;;;;;;;;;;;;;;13.85;61.79;103032.69;1057143;28;1268;-62
2022/01/21 03:06:40;;;;;;;;;;;;;;;13.82;64.46;103033.69;1057706;28;929;-63
2022/01/21 03:07:31;;;;;;;;;;;;;;;13.82;63.20;103032.81;1057823;28;700;-63
2022/01/21 03:08:21;;;;;;;;;;;;;;;13.83;62.38;103039.91;1057770;28;837;-63
2022/01/21 03:09:11;;;;;;;;;;;;;;;13.84;62.68;103038.97;1057688;28;708;-63
2022/01/21 03:10:02;;;;;;;;;;;;;;;13.83;62.42;103035.44;1057602;28;1959;-63
2022/01/21 03:10:52;;;;;;;;;;;;;;;13.83;62.90;103030.06;1057692;28;939;-63
2022/01/21 03:11:43;;;;;;;;;;;;;;;13.83;63.65;103039.91;1057746;28;657;-64
2022/01/21 03:12:33;;;;;;;;;;;;;;;13.82;63.58;103038.16;1058484;28;738;-64
2022/01/21 03:13:23;;;;;;;;;;;;;;;13.81;63.51;103039.09;1057740;28;661;-64
2022/01/21 03:14:14;;;;;;;;;;;;;;;13.81;61.99;103033.75;1057675;28;779;-64
2022/01/21 03:15:04;;;;;;;;;;;;;;;13.82;62.98;103032.81;1058631;28;894;-64
2022/01/21 03:15:55;;;;;;;;;;;;;;;13.82;62.65;103036.38;1057720;28;735;-64
2022/01/21 03:16:45;;;;;;;;;;;;;;;13.82;60.85;103036.38;1058492;28;974;-64
2022/01/21 03:17:35;;;;;;;;;;;;;;;13.82;61.29;103039.03;1057682;28;754;-64
2022/01/21 03:18:26;;;;;;;;;;;;;;;13.83;62.66;103032.75;1054303;28;1871;-64
2022/01/21 03:19:16;;;;;;;;;;;;;;;13.82;62.90;103040.84;1054616;28;788;-64
2022/01/21 03:20:07;;;;;;;;;;;;;;;13.80;62.54;103040.91;1054087;28;747;-64
2022/01/21 03:20:57;;;;;;;;;;;;;;;13.82;61.85;103046.22;1054579;28;782;-64
2022/01/21 03:21:47;;;;;;;;;;;;;;;13.82;61.51;103047.09;1054637;28;620;-64
2022/01/21 03:22:38;;;;;;;;;;;;;;;13.81;62.20;103052.50;1054530;28;678;-64
2022/01/21 03:23:29;;;;;;;;;;;;;;;13.81;63.27;103052.50;1054642;28;788;-64
2022/01/21 03:24:20;;;;;;;;;;;;;;;13.80;62.18;103045.41;1053248;28;801;-63
2022/01/21 03:25:10;;;;;;;;;;;;;;;13.80;62.52;103050.75;1054412;28;825;-64
2022/01/21 03:26:01;;;;;;;;;;;;;;;13.78;63.42;103050.84;1054641;28;692;-64
2022/01/21 03:26:51;;;;;;;;;;;;;;;13.76;63.99;103054.53;1054354;28;1964;-64
2022/01/21 03:27:41;;;;;;;;;;;;;;;13.77;62.43;103051.78;1053100;28;798;-64
2022/01/21 03:28:32;;;;;;;;;;;;;;;13.76;63.87;103049.19;1055002;28;641;-64
2022/01/21 03:29:22;;;;;;;;;;;;;;;13.77;61.93;103049.13;1054616;28;818;-63
2022/01/21 03:30:13;;;;;;;;;;;;;;;13.78;61.76;103052.66;1055567;28;704;-64
2022/01/21 03:31:03;;;;;;;;;;;;;;;13.79;61.98;103049.06;1055239;28;701;-64
2022/01/21 03:31:54;;;;;;;;;;;;;;;13.79;61.61;103054.41;1054804;28;1017;-64
2022/01/21 03:32:44;;;;;;;;;;;;;;;13.79;61.30;103049.88;1054765;28;677;-64
2022/01/21 03:33:35;;;;;;;;;;;;;;;13.78;62.22;103052.66;1054829;28;930;-64
2022/01/21 03:34:25;;;;;;;;;;;;;;;13.76;62.25;103055.41;1055160;28;645;-64
2022/01/21 03:35:15;;;;;;;;;;;;;;;13.75;63.75;103052.78;1055480;28;613;-64
2022/01/21 03:36:06;;;;;;;;;;;;;;;13.75;63.49;103052.78;1055389;28;710;-63
2022/01/21 03:36:56;;;;;;;;;;;;;;;13.75;61.60;103064.38;1057222;28;2109;-63
2022/01/21 03:37:47;;;;;;;;;;;;;;;13.75;62.85;103052.78;1058147;28;1857;-63
2022/01/21 03:38:37;;;;;;;;;;;;;;;13.75;63.18;103064.38;1059111;28;667;-63
2022/01/21 03:39:28;;;;;;;;;;;;;;;13.74;61.18;103051.06;1059022;28;644;-63
2022/01/21 03:40:18;;;;;;;;;;;;;;;13.74;62.40;103054.59;1059154;28;640;-63
2022/01/21 03:41:08;;;;;;;;;;;;;;;13.75;62.81;103052.78;1059176;28;803;-63
2022/01/21 03:41:59;;;;;;;;;;;;;;;13.73;61.55;103054.66;1058933;28;951;-63
2022/01/21 03:42:49;;;;;;;;;;;;;;;13.73;63.33;103051.97;1059142;28;691;-63
2022/01/21 03:43:40;;;;;;;;;;;;;;;13.71;63.63;103060.09;1059205;28;613;-64
2022/01/21 03:44:30;;;;;;;;;;;;;;;13.71;62.65;103056.53;1058503;28;706;-64
2022/01/21 03:45:20;;;;;;;;;;;;;;;13.71;61.69;103052.03;1059129;28;669;-64
2022/01/21 03:46:11;;;;;;;;;;;;;;;13.72;61.90;103058.28;1058932;28;1624;-64
2022/01/21 03:47:01;;;;;;;;;;;;;;;13.73;62.46;103060.03;1059549;27;1014;-64
2022/01/21 03:47:52;;;;;;;;;;;;;;;13.72;61.97;103056.47;1059694;27;692;-64
2022/01/21 03:48:47;;;;;;;;;;;;;;;13.74;61.49;103056.41;1057273;28;625;-63
2022/01/21 03:49:40;;;;;;;;;;;;;;;13.72;62.18;103056.47;1058068;28;747;-63
2022/01/21 03:50:32;;;;;;;;;;;;;;;13.71;62.59;103052.03;1057680;28;1125;-63
2022/01/21 03:51:22;;;;;;;;;;;;;;;13.70;63.03;103052.09;1058493;28;704;-63
2022/01/21 03:52:13;;;;;;;;;;;;;;;13.69;63.25;103045.88;1058535;28;847;-64
2022/01/21 03:53:03;;;;;;;;;;;;;;;13.68;62.84;103062.03;1057669;28;1873;-64
2022/01/21 03:53:54;;;;;;;;;;;;;;;13.69;62.60;103063.75;1057815;28;739;-63
2022/01/21 03:54:44;;;;;;;;;;;;;;;13.68;63.93;103045.94;1057016;28;1813;-63
2022/01/21 03:55:35;;;;;;;;;;;;;;;13.68;64.00;103056.66;1054280;28;602;-63
2022/01/21 03:56:25;;;;;;;;;;;;;;;13.67;63.88;103049.56;1054812;28;933;-63
2022/01/21 03:57:15;;;;;;;;;;;;;;;13.67;63.16;103058.47;1055324;28;629;-63
2022/01/21 03:58:06;;;;;;;;;;;;;;;13.68;61.05;103062.03;1053912;28;807;-64
2022/01/21 03:58:56;;;;;;;;;;;;;;;13.69;61.54;103066.44;1053722;28;774;-64
2022/01/21 03:59:47;;;;;;;;;;;;;;;13.69;61.69;103069.13;1054101;28;1018;-64
2022/01/21 04:00:37;;;;;;;;;;;;;;;13.69;61.68;103066.44;1053609;28;809;-64
2022/01/21 04:01:28;;;;;;;;;;;;;;;13.70;60.80;103065.50;1053509;28;684;-64
2022/01/21 04:02:19;;;;;;;;;;;;;;;13.69;61.93;103059.28;1054107;28;1028;-64
2022/01/21 04:03:09;;;;;;;;;;;;;;;13.68;62.85;103065.56;1053481;28;658;-63
2022/01/21 04:04:00;;;;;;;;;;;;;;;13.68;62.11;103056.66;1054119;28;787;-63
2022/01/21 04:04:50;;;;;;;;;;;;;;;13.65;63.71;103062.16;1053505;28;1267;-63
2022/01/21 04:05:41;;;;;;;;;;;;;;;13.63;62.29;103059.53;1053627;28;649;-63
2022/01/21 04:06:31;;;;;;;;;;;;;;;13.64;61.54;103055.91;1054209;28;696;-63
2022/01/21 04:07:21;;;;;;;;;;;;;;;13.65;62.40;103062.16;1054168;28;860;-62
2022/01/21 04:08:12;;;;;;;;;;;;;;;13.65;62.13;103059.47;1054191;28;702;-62
2022/01/21 04:09:02;;;;;;;;;;;;;;;13.65;61.87;103071.06;1053994;28;799;-62
2022/01/21 04:09:53;;;;;;;;;;;;;;;13.66;61.12;103071.94;1053527;28;1963;-63
2022/01/21 04:10:44;;;;;;;;;;;;;;;13.64;62.85;103071.13;1053680;28;829;-63
2022/01/21 04:11:34;;;;;;;;;;;;;;;13.63;62.80;103067.56;1054117;28;693;-63
2022/01/21 04:12:25;;;;;;;;;;;;;;;13.64;61.32;103074.66;1054090;28;705;-63
2022/01/21 04:13:16;;;;;;;;;;;;;;;13.63;62.07;103066.69;1054173;28;911;-63
2022/01/21 04:14:07;;;;;;;;;;;;;;;13.65;62.77;103062.16;1054037;28;751;-63
2022/01/21 04:14:58;;;;;;;;;;;;;;;13.62;63.58;103064.94;1053719;28;804;-63
2022/01/21 04:15:49;;;;;;;;;;;;;;;13.62;61.68;103064.94;1054174;28;716;-63
2022/01/21 04:16:39;;;;;;;;;;;;;;;13.62;61.75;103067.63;1054290;28;692;-63
2022/01/21 04:17:30;;;;;;;;;;;;;;;13.60;61.49;103067.72;1055809;28;1875;-63
2022/01/21 04:18:20;;;;;;;;;;;;;;;13.59;63.40;103052.59;1058510;28;698;-63
2022/01/21 04:19:11;;;;;;;;;;;;;;;13.59;63.94;103062.44;1057751;28;740;-63
2022/01/21 04:20:01;;;;;;;;;;;;;;;13.58;63.13;103064.22;1057933;28;767;-63
2022/01/21 04:20:52;;;;;;;;;;;;;;;13.58;61.45;103064.22;1053773;28;779;-63
2022/01/21 04:21:43;;;;;;;;;;;;;;;13.59;62.45;103067.78;1053706;28;762;-63
2022/01/21 04:22:33;;;;;;;;;;;;;;;13.59;62.57;103070.47;1057785;28;841;-63
2022/01/21 04:23:23;;;;;;;;;;;;;;;13.60;63.37;103077.56;1057746;28;610;-63
2022/01/21 04:24:15;;;;;;;;;;;;;;;13.59;61.82;103073.13;1058136;28;656;-63
2022/01/21 04:25:06;;;;;;;;;;;;;;;13.57;64.39;103064.28;1058236;28;672;-63
2022/01/21 04:25:56;;;;;;;;;;;;;;;13.58;60.77;103074.06;1057765;28;682;-63
2022/01/21 04:26:47;;;;;;;;;;;;;;;13.58;63.08;103076.75;1057737;28;689;-63
2022/01/21 04:27:37;;;;;;;;;;;;;;;13.59;62.77;103081.19;1057838;28;700;-63
2022/01/21 04:28:29;;;;;;;;;;;;;;;13.57;64.05;103075.00;1057574;28;622;-65
2022/01/21 04:29:20;;;;;;;;;;;;;;;13.57;63.33;103075.00;1058177;28;787;-65
2022/01/21 04:30:10;;;;;;;;;;;;;;;13.55;63.78;103073.25;1058127;28;1898;-65
2022/01/21 04:31:00;;;;;;;;;;;;;;;13.55;62.99;103067.91;1058129;28;743;-65
2022/01/21 04:31:51;;;;;;;;;;;;;;;13.58;63.10;103071.41;1057698;28;906;-64
2022/01/21 04:32:41;;;;;;;;;;;;;;;13.55;62.08;103062.53;1058421;28;630;-65
2022/01/21 04:33:32;;;;;;;;;;;;;;;13.57;63.07;103058.94;1057687;28;703;-65
2022/01/21 04:34:22;;;;;;;;;;;;;;;13.56;61.70;103060.75;1057737;28;1136;-65
2022/01/21 04:35:13;;;;;;;;;;;;;;;13.56;63.55;103060.75;1057556;28;812;-65
2022/01/21 04:36:03;;;;;;;;;;;;;;;13.53;62.51;103059.06;1057731;28;802;-65
2022/01/21 04:36:53;;;;;;;;;;;;;;;13.53;63.32;103061.75;1058304;28;755;-65
2022/01/21 04:37:52;;;;;;;;;;;;;;;13.52;63.64;103057.31;1054422;28;1775;-65
2022/01/21 04:38:43;;;;;;;;;;;;;;;13.54;62.09;103060.81;1054670;28;692;-65
2022/01/21 04:39:39;;;;;;;;;;;;;;;13.54;62.08;103070.66;1053315;28;713;-65
2022/01/21 04:40:32;;;;;;;;;;;;;;;13.53;62.37;103059.06;1054042;28;850;-65
2022/01/21 04:41:42;;;;;;;;;;;;;;;13.52;63.49;103060.00;1054733;28;637;-65
2022/01/21 04:47:29;;;;;;;;;;;;;;;13.46;63.88;103054.88;1037642;28;653;-64
2022/01/21 04:48:19;;;;;;;;;;;;;;;13.48;63.73;103049.47;1038744;28;691;-65
2022/01/21 04:49:10;;;;;;;;;;;;;;;13.48;61.53;103053.00;1038255;28;784;-65
2022/01/21 04:50:00;;;;;;;;;;;;;;;13.48;63.25;103049.47;1038117;28;1948;-65
2022/01/21 04:50:54;;;;;;;;;;;;;;;13.47;63.59;103053.94;1036902;28;818;-64
2022/01/21 04:52:02;;;;;;;;;;;;;;;13.49;62.91;103053.88;1038202;28;798;-64
2022/01/21 04:52:52;;;;;;;;;;;;;;;13.47;62.89;103051.28;1038543;28;1792;-64
2022/01/21 04:53:43;;;;;;;;;;;;;;;13.49;62.05;103048.53;1054600;28;958;-65
2022/01/21 04:54:33;;;;;;;;;;;;;;;13.46;63.34;103051.31;1054482;28;802;-65
2022/01/21 04:55:23;;;;;;;;;;;;;;;13.48;61.88;103050.34;1054574;28;794;-64
2022/01/21 04:56:14;;;;;;;;;;;;;;;13.48;62.41;103050.34;1054659;28;712;-64
2022/01/21 04:57:04;;;;;;;;;;;;;;;13.47;62.78;103053.94;1054520;28;797;-64
2022/01/21 04:57:55;;;;;;;;;;;;;;;13.46;63.06;103049.53;1054614;28;732;-64
2022/01/21 04:58:45;;;;;;;;;;;;;;;13.45;63.05;103046.91;1054683;28;807;-64
2022/01/21 04:59:36;;;;;;;;;;;;;;;13.45;62.74;103061.16;1053967;28;625;-64
2022/01/21 05:00:26;;;;;;;;;;;;;;;13.45;63.09;103055.81;1054657;28;747;-64
2022/01/21 05:01:16;;;;;;;;;;;;;;;13.44;61.03;103054.06;1057922;28;1893;-64
2022/01/21 05:02:07;;;;;;;;;;;;;;;13.44;62.91;103051.38;1057402;28;913;-65
2022/01/21 05:02:57;;;;;;;;;;;;;;;13.45;62.37;103049.59;1058022;28;1904;-66
2022/01/21 05:03:49;;;;;;;;;;;;;;;13.45;63.50;103053.13;1057574;28;697;-65
2022/01/21 05:04:39;;;;;;;;;;;;;;;13.45;62.69;103049.59;1058086;28;1270;-65
2022/01/21 05:05:30;;;;;;;;;;;;;;;13.45;61.34;103050.47;1057479;28;901;-65
2022/01/21 05:06:20;;;;;;;;;;;;;;;13.47;61.69;103048.59;1058204;28;744;-64
2022/01/21 05:07:14;;;;;;;;;;;;;;;13.46;63.11;103045.97;1058139;28;775;-64
2022/01/21 05:08:07;;;;;;;;;;;;;;;13.48;61.75;103044.09;1058200;28;700;-64
2022/01/21 05:09:00;;;;;;;;;;;;;;;13.45;62.67;103046.91;1058133;28;659;-64
2022/01/21 05:09:51;;;;;;;;;;;;;;;13.48;62.50;103049.47;1058075;28;1909;-64
2022/01/21 05:10:41;;;;;;;;;;;;;;;13.48;62.29;103044.97;1058267;28;672;-64
2022/01/21 05:11:36;;;;;;;;;;;;;;;13.50;60.39;103047.59;1058099;28;821;-64